createdAt,value
2023-05-05T00:03:56.004Z,101140.92
2023-05-05T00:08:59.211Z,101148.42
2023-05-05T00:14:02.104Z,101152.96
2023-05-05T00:19:05.620Z,101153.89
2023-05-05T00:24:10.364Z,101148.58
2023-05-05T00:29:13.783Z,101146.83
2023-05-05T00:34:16.685Z,101146.39
2023-05-05T00:39:19.888Z,101144.57
2023-05-05T00:44:37.332Z,101144.73
2023-05-05T00:49:40.242Z,101143.85
2023-05-05T00:54:43.345Z,101145.27
2023-05-05T00:59:47.062Z,101136.73
2023-05-05T01:04:50.269Z,101135.39
2023-05-05T01:10:17.976Z,101136.17
2023-05-05T01:15:33.527Z,101139.82
2023-05-05T01:20:42.389Z,101134.01
2023-05-05T01:26:05.935Z,101135.05
2023-05-05T01:31:14.130Z,101136.86
2023-05-05T01:36:23.001Z,101134.93
2023-05-05T01:41:28.601Z,101133.36
2023-05-05T01:46:33.351Z,101131.23
2023-05-05T01:51:37.063Z,101129.13
2023-05-05T01:56:41.100Z,101132.95
2023-05-05T02:01:46.138Z,101129.14
2023-05-05T02:06:53.309Z,101128.86
2023-05-05T02:11:57.985Z,101131.30
2023-05-05T02:17:01.610Z,101130.66
2023-05-05T02:22:04.612Z,101133.09
2023-05-05T02:27:08.338Z,101133.24
2023-05-05T02:32:14.916Z,101131.89
2023-05-05T02:37:20.179Z,101131.86
2023-05-05T02:42:24.002Z,101131.48
2023-05-05T02:47:36.948Z,101136.88
2023-05-05T02:52:40.145Z,101143.63
2023-05-05T02:57:54.099Z,101150.00
2023-05-05T03:03:16.607Z,101153.70
2023-05-05T03:08:37.175Z,101152.66
2023-05-05T03:13:43.112Z,101149.22
2023-05-05T03:18:48.815Z,101151.77
2023-05-05T03:23:51.817Z,101159.35
2023-05-05T03:28:54.819Z,101169.13
2023-05-05T03:33:58.231Z,101175.72
2023-05-05T03:39:01.334Z,101174.09
2023-05-05T03:44:04.644Z,101178.60
2023-05-05T03:49:09.294Z,101181.63
2023-05-05T03:54:12.187Z,101184.57
2023-05-05T03:59:15.097Z,101190.85
2023-05-05T04:04:18.141Z,101200.33
2023-05-05T04:09:21.201Z,101198.16
2023-05-05T04:14:24.207Z,101205.47
2023-05-05T04:19:27.315Z,101210.89
2023-05-05T04:24:30.213Z,101212.40
2023-05-05T04:29:33.217Z,101217.34
2023-05-05T04:34:36.544Z,101216.70
2023-05-05T04:39:39.649Z,101220.08
2023-05-05T04:44:42.836Z,101224.19
2023-05-05T04:49:45.947Z,101224.40
2023-05-05T04:54:49.051Z,101225.65
2023-05-05T04:59:52.050Z,101234.10
2023-05-05T05:04:55.058Z,101241.83
2023-05-05T05:09:58.583Z,101249.83
2023-05-05T05:15:01.685Z,101252.52
2023-05-05T05:20:05.341Z,101259.88
2023-05-05T05:25:09.164Z,101257.86
2023-05-05T05:30:12.537Z,101258.71
2023-05-05T05:35:16.848Z,101265.88
2023-05-05T05:40:19.815Z,101271.90
2023-05-05T05:45:22.866Z,101273.05
2023-05-05T05:50:28.822Z,101272.98
2023-05-05T05:55:32.090Z,101278.23
2023-05-05T06:00:35.250Z,101281.61
2023-05-05T06:05:38.768Z,101282.23
2023-05-05T06:10:42.399Z,101282.74
2023-05-05T06:15:46.759Z,101286.11
2023-05-05T06:20:51.267Z,101292.40
2023-05-05T06:25:56.177Z,101299.40
2023-05-05T06:31:00.035Z,101299.49
2023-05-05T06:36:04.298Z,101301.84
2023-05-05T06:41:07.781Z,101305.23
2023-05-05T06:46:11.506Z,101305.64
2023-05-05T06:51:15.985Z,101303.61
2023-05-05T06:56:19.762Z,101306.44
2023-05-05T07:01:24.030Z,101311.27
2023-05-05T07:06:28.845Z,101312.20
2023-05-05T07:11:32.261Z,101314.34
2023-05-05T07:16:38.023Z,101314.77
2023-05-05T07:21:41.546Z,101313.50
2023-05-05T07:26:45.157Z,101313.05
2023-05-05T07:31:48.372Z,101320.79
2023-05-05T07:36:51.792Z,101323.86
2023-05-05T07:41:54.780Z,101322.52
2023-05-05T07:46:57.781Z,101324.72
2023-05-05T07:52:01.016Z,101327.07
2023-05-05T07:57:04.210Z,101326.27
2023-05-05T08:02:07.453Z,101329.58
2023-05-05T08:07:11.135Z,101330.27
2023-05-05T08:12:15.460Z,101331.27
2023-05-05T08:17:18.783Z,101332.20
2023-05-05T08:22:22.420Z,101332.32
2023-05-05T08:27:25.804Z,101332.08
2023-05-05T08:32:29.895Z,101329.75
2023-05-05T08:37:33.588Z,101334.88
2023-05-05T08:42:39.017Z,101338.77
2023-05-05T08:47:43.823Z,101335.00
2023-05-05T08:52:51.228Z,101329.29
2023-05-05T08:57:56.528Z,101337.07
2023-05-05T09:03:00.358Z,101339.16
2023-05-05T09:08:05.702Z,101341.77
2023-05-05T09:13:08.836Z,101341.48
2023-05-05T09:18:13.245Z,101337.88
2023-05-05T09:23:17.478Z,101352.47
2023-05-05T09:28:20.703Z,101348.24
2023-05-05T09:33:34.048Z,101352.80
2023-05-05T09:38:37.238Z,101351.92
2023-05-05T09:43:53.043Z,101353.03
2023-05-05T09:48:56.041Z,101346.40
2023-05-05T09:53:59.251Z,101344.86
2023-05-05T09:59:08.808Z,101345.61
2023-05-05T10:04:28.691Z,101343.42
2023-05-05T10:09:34.572Z,101347.83
2023-05-05T10:14:37.896Z,101347.87
2023-05-05T10:19:41.628Z,101348.80
2023-05-05T10:24:49.520Z,101351.94
2023-05-05T10:29:56.108Z,101349.52
2023-05-05T10:35:04.140Z,101346.61
2023-05-05T10:40:08.862Z,101348.95
2023-05-05T10:45:12.158Z,101340.52
2023-05-05T10:50:27.493Z,101339.79
2023-05-05T10:56:00.098Z,101336.25
2023-05-05T11:01:03.960Z,101336.38
2023-05-05T11:06:09.895Z,101332.48
2023-05-05T11:11:13.285Z,101328.52
2023-05-05T11:16:39.369Z,101322.83
2023-05-05T11:22:00.253Z,101325.73
2023-05-05T11:27:03.665Z,101323.44
2023-05-05T11:32:14.244Z,101322.98
2023-05-05T11:37:17.766Z,101311.48
2023-05-05T11:42:25.365Z,101307.92
2023-05-05T11:47:29.115Z,101302.77
2023-05-05T11:52:32.192Z,101303.64
2023-05-05T11:57:35.195Z,101310.06
2023-05-05T12:02:38.289Z,101310.91
2023-05-05T12:07:41.519Z,101301.58
2023-05-05T12:12:44.567Z,101299.93
2023-05-05T12:17:48.370Z,101303.70
2023-05-05T12:22:51.555Z,101300.48
2023-05-05T12:27:54.660Z,101300.17
2023-05-05T12:33:03.808Z,101299.98
2023-05-05T12:38:07.005Z,101298.42
2023-05-05T12:43:10.107Z,101291.02
2023-05-05T12:48:22.895Z,101293.14
2023-05-05T12:53:26.573Z,101289.98
2023-05-05T12:58:32.025Z,101293.12
2023-05-05T13:03:35.305Z,101295.33
2023-05-05T13:08:44.958Z,101289.53
2023-05-05T13:13:47.996Z,101289.13
2023-05-05T13:18:51.418Z,101283.55
2023-05-05T13:23:57.339Z,101275.55
2023-05-05T13:29:04.688Z,101270.51
2023-05-05T13:34:08.007Z,101271.06
2023-05-05T13:39:11.612Z,101264.69
2023-05-05T13:44:14.821Z,101260.64
2023-05-05T13:49:18.246Z,101267.09
2023-05-05T13:54:21.571Z,101265.59
2023-05-05T13:59:25.982Z,101259.47
2023-05-05T14:04:29.052Z,101250.35
2023-05-05T14:09:32.139Z,101250.46
2023-05-05T14:14:35.707Z,101248.09
2023-05-05T14:19:38.721Z,101241.91
2023-05-05T14:24:42.377Z,101234.18
2023-05-05T14:29:45.852Z,101231.65
2023-05-05T14:34:50.415Z,101234.44
2023-05-05T14:39:55.265Z,101241.29
2023-05-05T14:44:58.433Z,101245.67
2023-05-05T14:50:01.858Z,101245.77
2023-05-05T14:55:05.488Z,101245.34
2023-05-05T15:00:09.696Z,101245.93
2023-05-05T15:05:13.146Z,101246.45
2023-05-05T15:10:17.291Z,101247.09
2023-05-05T15:15:21.397Z,101246.67
2023-05-05T15:20:24.478Z,101243.67
2023-05-05T15:25:27.785Z,101248.72
2023-05-05T15:30:30.994Z,101244.02
2023-05-05T15:35:34.508Z,101239.12
2023-05-05T15:40:37.743Z,101234.98
2023-05-05T15:45:43.690Z,101243.26
2023-05-05T15:50:46.592Z,101241.40
2023-05-05T15:55:49.605Z,101235.48
2023-05-05T16:00:52.596Z,101233.58
2023-05-05T16:05:55.906Z,101234.36
2023-05-05T16:10:59.021Z,101234.16
2023-05-05T16:16:02.368Z,101230.02
2023-05-05T16:21:05.634Z,101224.18
2023-05-05T16:26:08.947Z,101220.72
2023-05-05T16:31:13.715Z,101218.45
2023-05-05T16:36:16.998Z,101220.16
2023-05-05T16:41:20.525Z,101219.75
2023-05-05T16:46:23.575Z,101219.10
2023-05-05T16:51:27.338Z,101216.62
2023-05-05T16:56:30.239Z,101221.94
2023-05-05T17:01:35.193Z,101225.33
2023-05-05T17:06:38.439Z,101227.27
2023-05-05T17:11:41.730Z,101233.61
2023-05-05T17:16:44.989Z,101233.95
2023-05-05T17:21:48.338Z,101235.84
2023-05-05T17:26:51.427Z,101239.17
2023-05-05T17:31:55.472Z,101242.91
2023-05-05T17:36:59.080Z,101247.00
2023-05-05T17:42:02.300Z,101248.30
2023-05-05T17:47:07.950Z,101248.55
2023-05-05T17:52:11.000Z,101252.33
2023-05-05T17:57:14.161Z,101255.71
2023-05-05T18:02:18.335Z,101258.27
2023-05-05T18:07:21.396Z,101265.09
2023-05-05T18:12:24.518Z,101269.09
2023-05-05T18:17:27.816Z,101275.27
2023-05-05T18:22:30.817Z,101278.96
2023-05-05T18:27:34.642Z,101278.66
2023-05-05T18:32:38.306Z,101281.09
2023-05-05T18:37:42.660Z,101286.25
2023-05-05T18:42:45.811Z,101295.02
2023-05-05T18:47:49.255Z,101299.66
2023-05-05T18:52:53.143Z,101303.27
2023-05-05T18:57:56.178Z,101305.79
2023-05-05T19:02:59.537Z,101308.64
2023-05-05T19:08:03.405Z,101316.95
2023-05-05T19:13:10.209Z,101318.91
2023-05-05T19:18:13.510Z,101316.20
2023-05-05T19:23:16.992Z,101314.86
2023-05-05T19:28:20.209Z,101315.38
2023-05-05T19:33:23.920Z,101310.15
2023-05-05T19:38:26.937Z,101311.92
2023-05-05T19:43:30.138Z,101310.02
2023-05-05T19:48:34.163Z,101314.27
2023-05-05T19:53:38.023Z,101317.97
2023-05-05T19:58:54.813Z,101317.31
2023-05-05T20:03:58.182Z,101324.27
2023-05-05T20:09:02.679Z,101321.86
2023-05-05T20:14:06.247Z,101320.55
2023-05-05T20:19:09.691Z,101323.40
2023-05-05T20:24:13.106Z,101320.76
2023-05-05T20:29:17.163Z,101322.27
2023-05-05T20:34:20.869Z,101321.81
2023-05-05T20:39:23.981Z,101327.76
2023-05-05T20:44:27.696Z,101330.77
2023-05-05T20:49:31.092Z,101329.55
2023-05-05T20:54:34.515Z,101325.98
2023-05-05T20:59:38.306Z,101332.23
2023-05-05T21:04:41.842Z,101332.30
2023-05-05T21:09:48.119Z,101326.52
2023-05-05T21:14:51.453Z,101331.63
2023-05-05T21:19:57.813Z,101327.73
2023-05-05T21:25:14.229Z,101330.77
2023-05-05T21:30:17.628Z,101326.04
2023-05-05T21:35:21.476Z,101326.20
2023-05-05T21:40:24.484Z,101322.73
2023-05-05T21:45:27.987Z,101324.98
2023-05-05T21:50:31.107Z,101325.38
2023-05-05T21:55:34.298Z,101331.13
2023-05-05T22:00:37.402Z,101330.60
2023-05-05T22:05:40.404Z,101329.69
2023-05-05T22:10:43.511Z,101329.92
2023-05-05T22:15:47.678Z,101331.27
2023-05-05T22:20:51.566Z,101329.02
2023-05-05T22:25:54.776Z,101329.79
2023-05-05T22:30:57.841Z,101330.55
2023-05-05T22:36:00.983Z,101328.15
2023-05-05T22:41:04.089Z,101332.34
2023-05-05T22:46:07.411Z,101330.44
2023-05-05T22:51:10.400Z,101327.98
2023-05-05T22:56:13.509Z,101321.57
2023-05-05T23:01:19.546Z,101327.96
2023-05-05T23:06:22.796Z,101331.14
2023-05-05T23:11:26.209Z,101329.10
2023-05-05T23:16:31.902Z,101325.23
2023-05-05T23:21:45.426Z,101324.39
2023-05-05T23:26:52.835Z,101323.73
2023-05-05T23:31:56.038Z,101319.16
2023-05-05T23:36:59.037Z,101311.79
2023-05-05T23:42:02.138Z,101313.26
2023-05-05T23:47:05.160Z,101312.52
2023-05-05T23:52:08.155Z,101312.20
2023-05-05T23:57:11.250Z,101314.23
